Vienna, Austria
Current Conditions -  °F | °C
As of 12:20 PM on Friday 31 Oct 2014 (Local Time) from LOWW Reporting Station
Few Clouds Few Clouds  
Wind Chill: 52°   Ceiling: Unl
Heat Index: 52°   Visibility: 4mi
Dew Point: 43°   Wind: 6mph
Humidity: 71%   Direction: 360°N
Pressure: 30.36"   Gusts: NA
Location:  48.22°N, 16.37°E
Report Text: LOWW 311020Z 36005KT 320V030 7000 FEW025 11/06 Q1028 NOSIG
Loading
Personal Weather Stations






























Interactive Weather Map
Tropical Storm Tracking
New forecast layout! Learn more

10-Day Weather Forecast

Advertisements
Track Severe Weather on mobile